sensor_id;sensor_type;location;lat;lon;timestamp;temperature;humidity
30290;DHT22;17105;55.652;37.710;2022-08-03T06:22:23;27.70;57.80
30290;DHT22;17105;55.652;37.710;2022-08-03T06:22:59;27.90;58.40
30290;DHT22;17105;55.652;37.710;2022-08-03T06:23:36;27.90;58.20
30290;DHT22;17105;55.652;37.710;2022-08-03T06:24:27;28.00;58.00
30290;DHT22;17105;55.652;37.710;2022-08-03T06:25:06;28.10;57.50
30290;DHT22;17105;55.652;37.710;2022-08-03T06:25:46;28.10;57.40
30290;DHT22;17105;55.652;37.710;2022-08-03T06:26:26;28.20;57.20
30290;DHT22;17105;55.652;37.710;2022-08-03T06:27:03;28.20;57.10
30290;DHT22;17105;55.652;37.710;2022-08-03T06:27:37;28.30;57.00
30290;DHT22;17105;55.652;37.710;2022-08-03T06:28:13;28.30;56.90
30290;DHT22;17105;55.652;37.710;2022-08-03T06:29:10;28.30;56.90
30290;DHT22;17105;55.652;37.710;2022-08-03T06:29:45;28.40;56.90
30290;DHT22;17105;55.652;37.710;2022-08-03T06:30:20;28.40;56.40
30290;DHT22;17105;55.652;37.710;2022-08-03T06:30:54;28.40;56.30
30290;DHT22;17105;55.652;37.710;2022-08-03T06:31:30;28.50;56.20
30290;DHT22;17105;55.652;37.710;2022-08-03T06:32:06;28.50;56.20
30290;DHT22;17105;55.652;37.710;2022-08-03T06:32:41;28.50;56.50
30290;DHT22;17105;55.652;37.710;2022-08-03T06:33:24;28.50;56.50
30290;DHT22;17105;55.652;37.710;2022-08-03T06:34:20;28.50;56.30
30290;DHT22;17105;55.652;37.710;2022-08-03T06:35:08;28.50;56.00
30290;DHT22;17105;55.652;37.710;2022-08-03T06:35:43;28.60;55.50
30290;DHT22;17105;55.652;37.710;2022-08-03T06:36:18;28.60;55.80
30290;DHT22;17105;55.652;37.710;2022-08-03T06:36:52;28.60;55.80
30290;DHT22;17105;55.652;37.710;2022-08-03T06:37:41;28.60;55.60
30290;DHT22;17105;55.652;37.710;2022-08-03T06:38:16;28.60;55.10
30290;DHT22;17105;55.652;37.710;2022-08-03T06:38:52;28.70;54.90
30290;DHT22;17105;55.652;37.710;2022-08-03T06:39:26;28.70;54.50
30290;DHT22;17105;55.652;37.710;2022-08-03T06:40:01;28.70;54.50
30290;DHT22;17105;55.652;37.710;2022-08-03T06:40:36;28.70;54.90
30290;DHT22;17105;55.652;37.710;2022-08-03T06:41:13;28.70;54.80
30290;DHT22;17105;55.652;37.710;2022-08-03T06:41:49;28.70;54.40
30290;DHT22;17105;55.652;37.710;2022-08-03T06:42:25;28.80;53.80
30290;DHT22;17105;55.652;37.710;2022-08-03T06:43:01;28.80;53.80
30290;DHT22;17105;55.652;37.710;2022-08-03T06:43:37;28.80;53.60
30290;DHT22;17105;55.652;37.710;2022-08-03T06:44:31;28.80;53.70
30290;DHT22;17105;55.652;37.710;2022-08-03T06:45:10;28.80;55.00
30290;DHT22;17105;55.652;37.710;2022-08-03T06:45:44;28.70;55.10
30290;DHT22;17105;55.652;37.710;2022-08-03T06:46:20;28.70;54.70
30290;DHT22;17105;55.652;37.710;2022-08-03T06:46:55;28.70;54.10
30290;DHT22;17105;55.652;37.710;2022-08-03T06:47:28;28.80;53.60
30290;DHT22;17105;55.652;37.710;2022-08-03T06:48:05;28.80;53.30
30290;DHT22;17105;55.652;37.710;2022-08-03T06:48:39;28.80;53.20
30290;DHT22;17105;55.652;37.710;2022-08-03T06:49:15;28.80;53.20
30290;DHT22;17105;55.652;37.710;2022-08-03T06:49:51;28.90;53.20
30290;DHT22;17105;55.652;37.710;2022-08-03T06:50:46;28.90;53.10
30290;DHT22;17105;55.652;37.710;2022-08-03T06:51:21;28.90;53.50
30290;DHT22;17105;55.652;37.710;2022-08-03T06:52:16;28.90;53.30
30290;DHT22;17105;55.652;37.710;2022-08-03T06:53:10;28.90;54.50
30290;DHT22;17105;55.652;37.710;2022-08-03T06:53:53;28.90;54.80
30290;DHT22;17105;55.652;37.710;2022-08-03T06:54:28;28.90;54.20
30290;DHT22;17105;55.652;37.710;2022-08-03T06:55:08;28.90;54.40
30290;DHT22;17105;55.652;37.710;2022-08-03T06:55:43;28.90;54.20
30290;DHT22;17105;55.652;37.710;2022-08-03T06:56:24;28.90;54.50
30290;DHT22;17105;55.652;37.710;2022-08-03T06:56:59;28.90;55.20
30290;DHT22;17105;55.652;37.710;2022-08-03T06:57:32;28.90;54.60
30290;DHT22;17105;55.652;37.710;2022-08-03T06:58:07;29.00;54.40
30290;DHT22;17105;55.652;37.710;2022-08-03T06:58:42;29.00;53.90
30290;DHT22;17105;55.652;37.710;2022-08-03T06:59:16;29.00;53.30
30290;DHT22;17105;55.652;37.710;2022-08-03T07:00:13;29.00;52.80
30290;DHT22;17105;55.652;37.710;2022-08-03T07:00:47;29.10;52.80
30290;DHT22;17105;55.652;37.710;2022-08-03T07:01:22;29.10;52.60
30290;DHT22;17105;55.652;37.710;2022-08-03T07:01:57;29.10;52.80
30290;DHT22;17105;55.652;37.710;2022-08-03T07:02:32;29.10;54.30
30290;DHT22;17105;55.652;37.710;2022-08-03T07:03:08;29.10;53.90
30290;DHT22;17105;55.652;37.710;2022-08-03T07:03:48;29.10;53.40
30290;DHT22;17105;55.652;37.710;2022-08-03T07:04:24;29.10;52.80
30290;DHT22;17105;55.652;37.710;2022-08-03T07:04:59;29.10;52.70
30290;DHT22;17105;55.652;37.710;2022-08-03T07:05:35;29.20;52.10
30290;DHT22;17105;55.652;37.710;2022-08-03T07:06:12;29.20;52.20
30290;DHT22;17105;55.652;37.710;2022-08-03T07:06:48;29.10;53.60
30290;DHT22;17105;55.652;37.710;2022-08-03T07:07:22;29.10;52.70
30290;DHT22;17105;55.652;37.710;2022-08-03T07:07:56;29.20;52.00
30290;DHT22;17105;55.652;37.710;2022-08-03T07:08:31;29.20;51.60
30290;DHT22;17105;55.652;37.710;2022-08-03T07:09:06;29.20;51.40
30290;DHT22;17105;55.652;37.710;2022-08-03T07:09:41;29.20;51.30
30290;DHT22;17105;55.652;37.710;2022-08-03T07:10:29;29.20;51.10
30290;DHT22;17105;55.652;37.710;2022-08-03T07:11:05;29.30;51.00
30290;DHT22;17105;55.652;37.710;2022-08-03T07:11:41;29.30;51.00
30290;DHT22;17105;55.652;37.710;2022-08-03T07:12:16;29.30;51.60
30290;DHT22;17105;55.652;37.710;2022-08-03T07:12:51;29.30;51.70
30290;DHT22;17105;55.652;37.710;2022-08-03T07:13:28;29.30;51.70
30290;DHT22;17105;55.652;37.710;2022-08-03T07:14:04;29.40;51.40
30290;DHT22;17105;55.652;37.710;2022-08-03T07:14:39;29.40;51.20
30290;DHT22;17105;55.652;37.710;2022-08-03T07:15:14;29.40;51.20
30290;DHT22;17105;55.652;37.710;2022-08-03T07:16:11;29.50;51.90
30290;DHT22;17105;55.652;37.710;2022-08-03T07:16:46;29.50;51.30
30290;DHT22;17105;55.652;37.710;2022-08-03T07:17:20;29.60;51.10
30290;DHT22;17105;55.652;37.710;2022-08-03T07:17:55;29.60;51.00
30290;DHT22;17105;55.652;37.710;2022-08-03T07:18:32;29.60;50.90
30290;DHT22;17105;55.652;37.710;2022-08-03T07:19:05;29.70;50.80
30290;DHT22;17105;55.652;37.710;2022-08-03T07:19:39;29.70;50.60
30290;DHT22;17105;55.652;37.710;2022-08-03T07:20:14;29.80;50.60
30290;DHT22;17105;55.652;37.710;2022-08-03T07:20:50;29.80;50.50
30290;DHT22;17105;55.652;37.710;2022-08-03T07:21:27;29.90;50.60
30290;DHT22;17105;55.652;37.710;2022-08-03T07:22:01;30.00;50.30
30290;DHT22;17105;55.652;37.710;2022-08-03T07:22:37;30.10;50.10
30290;DHT22;17105;55.652;37.710;2022-08-03T07:23:13;30.10;50.00
30290;DHT22;17105;55.652;37.710;2022-08-03T07:23:51;30.20;50.10
30290;DHT22;17105;55.652;37.710;2022-08-03T07:24:26;30.20;50.10
30290;DHT22;17105;55.652;37.710;2022-08-03T07:25:02;30.20;49.90
30290;DHT22;17105;55.652;37.710;2022-08-03T07:25:38;30.20;49.70
30290;DHT22;17105;55.652;37.710;2022-08-03T07:26:13;30.20;49.50
30290;DHT22;17105;55.652;37.710;2022-08-03T07:26:48;30.20;49.40
30290;DHT22;17105;55.652;37.710;2022-08-03T07:27:22;30.20;49.50
30290;DHT22;17105;55.652;37.710;2022-08-03T07:27:57;30.20;49.70
30290;DHT22;17105;55.652;37.710;2022-08-03T07:28:32;30.10;50.00
30290;DHT22;17105;55.652;37.710;2022-08-03T07:29:06;30.10;50.30
30290;DHT22;17105;55.652;37.710;2022-08-03T07:29:47;30.10;50.10
30290;DHT22;17105;55.652;37.710;2022-08-03T07:30:22;30.10;49.80
30290;DHT22;17105;55.652;37.710;2022-08-03T07:30:56;30.00;49.80
30290;DHT22;17105;55.652;37.710;2022-08-03T07:31:34;30.00;50.80
30290;DHT22;17105;55.652;37.710;2022-08-03T07:32:07;30.00;50.70
30290;DHT22;17105;55.652;37.710;2022-08-03T07:32:42;30.00;50.40
30290;DHT22;17105;55.652;37.710;2022-08-03T07:33:22;30.00;50.00
30290;DHT22;17105;55.652;37.710;2022-08-03T07:33:57;30.00;49.60
30290;DHT22;17105;55.652;37.710;2022-08-03T07:34:32;30.00;49.40
30290;DHT22;17105;55.652;37.710;2022-08-03T07:35:08;30.00;49.50
30290;DHT22;17105;55.652;37.710;2022-08-03T07:35:56;30.00;49.60
30290;DHT22;17105;55.652;37.710;2022-08-03T07:36:33;30.00;49.00
30290;DHT22;17105;55.652;37.710;2022-08-03T07:37:08;30.10;48.90
30290;DHT22;17105;55.652;37.710;2022-08-03T07:37:43;30.10;48.80
30290;DHT22;17105;55.652;37.710;2022-08-03T07:38:26;30.20;48.90
30290;DHT22;17105;55.652;37.710;2022-08-03T07:39:00;30.20;49.00
30290;DHT22;17105;55.652;37.710;2022-08-03T07:39:50;30.30;48.70
30290;DHT22;17105;55.652;37.710;2022-08-03T07:40:25;30.30;48.40
30290;DHT22;17105;55.652;37.710;2022-08-03T07:41:03;30.30;48.20
30290;DHT22;17105;55.652;37.710;2022-08-03T07:41:36;30.30;48.20
30290;DHT22;17105;55.652;37.710;2022-08-03T07:42:13;30.40;48.30
30290;DHT22;17105;55.652;37.710;2022-08-03T07:44:36;30.50;48.40
30290;DHT22;17105;55.652;37.710;2022-08-03T07:45:11;31.20;48.20
30290;DHT22;17105;55.652;37.710;2022-08-03T07:45:48;31.30;48.40
30290;DHT22;17105;55.652;37.710;2022-08-03T07:46:23;31.60;48.40
30290;DHT22;17105;55.652;37.710;2022-08-03T07:46:58;31.80;47.90
30290;DHT22;17105;55.652;37.710;2022-08-03T20:00:22;26.60;52.60
30290;DHT22;17105;55.652;37.710;2022-08-03T20:01:08;26.70;53.10
30290;DHT22;17105;55.652;37.710;2022-08-03T20:01:54;26.70;53.20
30290;DHT22;17105;55.652;37.710;2022-08-03T20:02:30;26.70;53.50
30290;DHT22;17105;55.652;37.710;2022-08-03T20:03:05;26.80;53.60
30290;DHT22;17105;55.652;37.710;2022-08-03T20:03:54;26.80;53.60
30290;DHT22;17105;55.652;37.710;2022-08-03T20:04:34;26.90;53.70
30290;DHT22;17105;55.652;37.710;2022-08-03T20:05:11;26.90;53.50
30290;DHT22;17105;55.652;37.710;2022-08-03T20:05:47;27.00;53.40
30290;DHT22;17105;55.652;37.710;2022-08-03T20:06:25;27.00;53.20
30290;DHT22;17105;55.652;37.710;2022-08-03T20:07:03;27.00;53.10
30290;DHT22;17105;55.652;37.710;2022-08-03T20:07:41;27.00;53.30
30290;DHT22;17105;55.652;37.710;2022-08-03T20:08:21;27.00;53.60
30290;DHT22;17105;55.652;37.710;2022-08-03T20:08:54;27.00;53.60
30290;DHT22;17105;55.652;37.710;2022-08-03T20:09:32;27.10;53.60
30290;DHT22;17105;55.652;37.710;2022-08-03T20:10:08;27.20;53.70
30290;DHT22;17105;55.652;37.710;2022-08-03T20:10:43;27.10;53.50
30290;DHT22;17105;55.652;37.710;2022-08-03T20:11:25;27.20;53.50
30290;DHT22;17105;55.652;37.710;2022-08-03T20:12:00;27.30;53.60
30290;DHT22;17105;55.652;37.710;2022-08-03T20:12:38;27.30;53.60
30290;DHT22;17105;55.652;37.710;2022-08-03T20:13:14;27.30;53.40
30290;DHT22;17105;55.652;37.710;2022-08-03T20:13:52;27.30;53.30
30290;DHT22;17105;55.652;37.710;2022-08-03T20:14:27;27.40;53.10
30290;DHT22;17105;55.652;37.710;2022-08-03T20:15:06;27.40;52.80
30290;DHT22;17105;55.652;37.710;2022-08-03T20:15:40;27.40;52.70
30290;DHT22;17105;55.652;37.710;2022-08-03T20:16:19;27.40;52.50
30290;DHT22;17105;55.652;37.710;2022-08-03T20:16:56;27.40;52.40
30290;DHT22;17105;55.652;37.710;2022-08-03T20:17:32;27.30;52.40
30290;DHT22;17105;55.652;37.710;2022-08-03T20:18:25;27.30;52.70
30290;DHT22;17105;55.652;37.710;2022-08-03T20:19:01;27.30;52.60
30290;DHT22;17105;55.652;37.710;2022-08-03T20:19:46;27.30;52.50
30290;DHT22;17105;55.652;37.710;2022-08-03T20:20:24;27.30;52.30
30290;DHT22;17105;55.652;37.710;2022-08-03T20:21:05;27.20;52.10
30290;DHT22;17105;55.652;37.710;2022-08-03T20:22:00;27.20;52.20
30290;DHT22;17105;55.652;37.710;2022-08-03T20:22:36;27.10;52.30
30290;DHT22;17105;55.652;37.710;2022-08-03T20:23:17;27.10;52.40
30290;DHT22;17105;55.652;37.710;2022-08-03T20:23:58;27.10;52.50
30290;DHT22;17105;55.652;37.710;2022-08-03T20:24:54;27.00;52.40
30290;DHT22;17105;55.652;37.710;2022-08-03T20:25:33;27.00;52.60
30290;DHT22;17105;55.652;37.710;2022-08-03T20:26:14;26.90;52.70
30290;DHT22;17105;55.652;37.710;2022-08-03T20:26:54;26.90;52.70
30290;DHT22;17105;55.652;37.710;2022-08-03T20:27:33;26.90;52.80
30290;DHT22;17105;55.652;37.710;2022-08-03T20:28:30;26.80;52.70
30290;DHT22;17105;55.652;37.710;2022-08-03T20:29:05;26.80;52.90
30290;DHT22;17105;55.652;37.710;2022-08-03T20:29:44;26.80;53.10
30290;DHT22;17105;55.652;37.710;2022-08-03T20:30:41;26.70;53.00
30290;DHT22;17105;55.652;37.710;2022-08-03T20:31:19;26.70;53.10
30290;DHT22;17105;55.652;37.710;2022-08-03T20:32:09;26.70;53.10
30290;DHT22;17105;55.652;37.710;2022-08-03T20:32:45;26.60;53.10
30290;DHT22;17105;55.652;37.710;2022-08-03T20:33:20;26.60;53.20
30290;DHT22;17105;55.652;37.710;2022-08-03T20:34:16;26.60;53.20
30290;DHT22;17105;55.652;37.710;2022-08-03T20:34:50;26.60;53.30
30290;DHT22;17105;55.652;37.710;2022-08-03T20:35:25;26.50;53.40
30290;DHT22;17105;55.652;37.710;2022-08-03T20:36:01;26.50;53.50
30290;DHT22;17105;55.652;37.710;2022-08-03T20:36:36;26.50;53.60
30290;DHT22;17105;55.652;37.710;2022-08-03T20:37:11;26.50;53.50
30290;DHT22;17105;55.652;37.710;2022-08-03T20:37:50;26.40;53.60
30290;DHT22;17105;55.652;37.710;2022-08-03T20:38:25;26.40;53.70
30290;DHT22;17105;55.652;37.710;2022-08-03T20:39:02;26.40;53.80
30290;DHT22;17105;55.652;37.710;2022-08-03T20:39:40;26.30;53.90
30290;DHT22;17105;55.652;37.710;2022-08-03T20:40:36;26.30;54.10
30290;DHT22;17105;55.652;37.710;2022-08-03T20:41:13;26.30;54.10
30290;DHT22;17105;55.652;37.710;2022-08-03T20:41:48;26.30;54.10
30290;DHT22;17105;55.652;37.710;2022-08-03T20:42:23;26.30;54.20
30290;DHT22;17105;55.652;37.710;2022-08-03T20:42:59;26.30;54.30
30290;DHT22;17105;55.652;37.710;2022-08-03T20:43:33;26.30;54.40
30290;DHT22;17105;55.652;37.710;2022-08-03T20:44:09;26.30;54.30
30290;DHT22;17105;55.652;37.710;2022-08-03T20:44:44;26.30;54.30
30290;DHT22;17105;55.652;37.710;2022-08-03T20:45:37;26.30;54.20
30290;DHT22;17105;55.652;37.710;2022-08-03T20:46:33;26.30;54.30
30290;DHT22;17105;55.652;37.710;2022-08-03T20:47:29;26.30;54.20
30290;DHT22;17105;55.652;37.710;2022-08-03T20:48:08;26.30;54.30
30290;DHT22;17105;55.652;37.710;2022-08-03T20:48:48;26.20;54.20
30290;DHT22;17105;55.652;37.710;2022-08-03T20:49:25;26.20;54.30
30290;DHT22;17105;55.652;37.710;2022-08-03T20:50:00;26.20;54.20
30290;DHT22;17105;55.652;37.710;2022-08-03T20:50:35;26.20;54.20
30290;DHT22;17105;55.652;37.710;2022-08-03T20:51:10;26.20;54.40
30290;DHT22;17105;55.652;37.710;2022-08-03T20:51:52;26.20;54.40
30290;DHT22;17105;55.652;37.710;2022-08-03T20:52:27;26.10;54.30
30290;DHT22;17105;55.652;37.710;2022-08-03T20:53:02;26.10;54.40
30290;DHT22;17105;55.652;37.710;2022-08-03T20:53:38;26.10;54.40
30290;DHT22;17105;55.652;37.710;2022-08-03T20:54:32;26.10;54.50
30290;DHT22;17105;55.652;37.710;2022-08-03T20:55:11;26.00;54.50
30290;DHT22;17105;55.652;37.710;2022-08-03T20:55:47;26.00;54.70
30290;DHT22;17105;55.652;37.710;2022-08-03T20:56:35;26.00;55.10
30290;DHT22;17105;55.652;37.710;2022-08-03T20:57:11;26.00;55.30
30290;DHT22;17105;55.652;37.710;2022-08-03T20:57:46;26.00;55.10
30290;DHT22;17105;55.652;37.710;2022-08-03T20:58:24;26.10;55.20
30290;DHT22;17105;55.652;37.710;2022-08-03T20:59:00;26.10;54.90
30290;DHT22;17105;55.652;37.710;2022-08-03T20:59:35;26.20;54.80
30290;DHT22;17105;55.652;37.710;2022-08-03T21:00:23;26.20;54.70
30290;DHT22;17105;55.652;37.710;2022-08-03T21:01:06;26.20;54.80
30290;DHT22;17105;55.652;37.710;2022-08-03T21:01:40;26.20;55.10
30290;DHT22;17105;55.652;37.710;2022-08-03T21:02:15;26.20;55.10
30290;DHT22;17105;55.652;37.710;2022-08-03T21:02:53;26.30;55.10
30290;DHT22;17105;55.652;37.710;2022-08-03T21:03:30;26.30;55.20
30290;DHT22;17105;55.652;37.710;2022-08-03T21:04:23;26.30;54.90
30290;DHT22;17105;55.652;37.710;2022-08-03T21:05:00;26.40;54.70
30290;DHT22;17105;55.652;37.710;2022-08-03T21:05:44;26.40;54.60
30290;DHT22;17105;55.652;37.710;2022-08-03T21:06:30;26.50;55.20
30290;DHT22;17105;55.652;37.710;2022-08-03T21:07:09;26.50;54.60
30290;DHT22;17105;55.652;37.710;2022-08-03T21:07:51;26.50;54.40
30290;DHT22;17105;55.652;37.710;2022-08-03T21:08:39;26.50;54.20
30290;DHT22;17105;55.652;37.710;2022-08-03T21:09:24;26.50;54.10
30290;DHT22;17105;55.652;37.710;2022-08-03T21:10:14;26.50;54.20
30290;DHT22;17105;55.652;37.710;2022-08-03T21:10:50;26.50;54.10
30290;DHT22;17105;55.652;37.710;2022-08-03T21:11:27;26.50;54.20
30290;DHT22;17105;55.652;37.710;2022-08-03T21:12:30;26.50;54.20
30290;DHT22;17105;55.652;37.710;2022-08-03T21:13:10;26.50;54.10
30290;DHT22;17105;55.652;37.710;2022-08-03T21:13:54;26.50;53.80
30290;DHT22;17105;55.652;37.710;2022-08-03T21:14:37;26.50;53.70
30290;DHT22;17105;55.652;37.710;2022-08-03T21:15:14;26.50;53.70
30290;DHT22;17105;55.652;37.710;2022-08-03T21:16:08;26.50;53.80
30290;DHT22;17105;55.652;37.710;2022-08-03T21:16:49;26.40;53.80
30290;DHT22;17105;55.652;37.710;2022-08-03T21:17:25;26.40;53.80
30290;DHT22;17105;55.652;37.710;2022-08-03T21:18:14;26.30;53.80
30290;DHT22;17105;55.652;37.710;2022-08-03T21:18:52;26.30;53.90
30290;DHT22;17105;55.652;37.710;2022-08-03T21:19:29;26.30;53.90
30290;DHT22;17105;55.652;37.710;2022-08-03T21:20:06;26.30;54.00
30290;DHT22;17105;55.652;37.710;2022-08-03T21:20:43;26.30;54.10
30290;DHT22;17105;55.652;37.710;2022-08-03T21:21:20;26.20;54.10
30290;DHT22;17105;55.652;37.710;2022-08-03T21:21:57;26.20;54.20
30290;DHT22;17105;55.652;37.710;2022-08-03T21:22:31;26.10;54.40
30290;DHT22;17105;55.652;37.710;2022-08-03T21:23:10;26.10;54.60
30290;DHT22;17105;55.652;37.710;2022-08-03T21:24:06;26.10;54.70
30290;DHT22;17105;55.652;37.710;2022-08-03T21:24:43;26.10;54.60
30290;DHT22;17105;55.652;37.710;2022-08-03T21:25:25;26.10;54.50
30290;DHT22;17105;55.652;37.710;2022-08-03T21:26:03;26.00;54.80
30290;DHT22;17105;55.652;37.710;2022-08-03T21:26:40;26.00;54.50
30290;DHT22;17105;55.652;37.710;2022-08-03T21:27:13;26.00;54.60
30290;DHT22;17105;55.652;37.710;2022-08-03T21:27:48;26.00;54.70
30290;DHT22;17105;55.652;37.710;2022-08-03T21:31:01;25.90;54.60
30290;DHT22;17105;55.652;37.710;2022-08-03T21:31:39;25.80;55.20
30290;DHT22;17105;55.652;37.710;2022-08-03T21:32:15;25.80;55.30
30290;DHT22;17105;55.652;37.710;2022-08-03T21:33:04;25.80;55.30
30290;DHT22;17105;55.652;37.710;2022-08-03T21:33:42;25.80;55.30
30290;DHT22;17105;55.652;37.710;2022-08-03T21:34:19;25.70;55.30
30290;DHT22;17105;55.652;37.710;2022-08-03T21:34:54;25.70;55.40
30290;DHT22;17105;55.652;37.710;2022-08-03T21:35:29;25.70;55.40
30290;DHT22;17105;55.652;37.710;2022-08-03T21:36:04;25.70;55.60
30290;DHT22;17105;55.652;37.710;2022-08-03T21:36:39;25.70;55.50
30290;DHT22;17105;55.652;37.710;2022-08-03T21:37:15;25.70;55.50
30290;DHT22;17105;55.652;37.710;2022-08-03T21:37:51;25.70;55.50
30290;DHT22;17105;55.652;37.710;2022-08-03T21:38:40;25.70;55.40
30290;DHT22;17105;55.652;37.710;2022-08-03T21:39:27;25.70;55.50
30290;DHT22;17105;55.652;37.710;2022-08-03T21:40:04;25.70;55.70
30290;DHT22;17105;55.652;37.710;2022-08-03T21:40:39;25.70;55.80
30290;DHT22;17105;55.652;37.710;2022-08-03T21:41:14;25.70;55.80
30290;DHT22;17105;55.652;37.710;2022-08-03T21:41:48;25.70;55.70
30290;DHT22;17105;55.652;37.710;2022-08-03T21:42:24;25.70;55.50
30290;DHT22;17105;55.652;37.710;2022-08-03T21:42:58;25.80;55.60
30290;DHT22;17105;55.652;37.710;2022-08-03T21:43:32;25.70;55.50
30290;DHT22;17105;55.652;37.710;2022-08-03T21:44:07;25.70;55.50
30290;DHT22;17105;55.652;37.710;2022-08-03T21:44:41;25.70;55.50
30290;DHT22;17105;55.652;37.710;2022-08-03T21:45:17;25.60;55.40
30290;DHT22;17105;55.652;37.710;2022-08-03T21:45:53;25.60;55.50
30290;DHT22;17105;55.652;37.710;2022-08-03T21:46:33;25.60;55.60
30290;DHT22;17105;55.652;37.710;2022-08-03T21:47:10;25.60;55.60
30290;DHT22;17105;55.652;37.710;2022-08-03T21:47:46;25.60;55.70
30290;DHT22;17105;55.652;37.710;2022-08-03T21:48:23;25.60;55.80
30290;DHT22;17105;55.652;37.710;2022-08-03T21:49:01;25.50;55.90
30290;DHT22;17105;55.652;37.710;2022-08-03T21:49:56;25.60;56.20
30290;DHT22;17105;55.652;37.710;2022-08-03T21:50:41;25.60;56.10
30290;DHT22;17105;55.652;37.710;2022-08-03T21:51:16;25.60;56.00
30290;DHT22;17105;55.652;37.710;2022-08-03T21:51:53;25.60;56.00
30290;DHT22;17105;55.652;37.710;2022-08-03T21:52:32;25.60;56.00
30290;DHT22;17105;55.652;37.710;2022-08-03T21:53:08;25.60;56.00
30290;DHT22;17105;55.652;37.710;2022-08-03T21:53:45;25.60;56.00
30290;DHT22;17105;55.652;37.710;2022-08-03T21:54:40;25.60;56.20
30290;DHT22;17105;55.652;37.710;2022-08-03T21:55:15;25.60;56.10
30290;DHT22;17105;55.652;37.710;2022-08-03T21:55:55;25.60;56.00
30290;DHT22;17105;55.652;37.710;2022-08-03T21:56:34;25.60;56.00
30290;DHT22;17105;55.652;37.710;2022-08-03T21:57:12;25.60;56.10
30290;DHT22;17105;55.652;37.710;2022-08-03T21:57:51;25.60;56.00
30290;DHT22;17105;55.652;37.710;2022-08-03T21:58:31;25.60;56.00
30290;DHT22;17105;55.652;37.710;2022-08-03T21:59:08;25.60;56.00
30290;DHT22;17105;55.652;37.710;2022-08-03T21:59:52;25.60;56.00
30290;DHT22;17105;55.652;37.710;2022-08-03T22:00:31;25.60;56.00
30290;DHT22;17105;55.652;37.710;2022-08-03T22:01:06;25.60;56.10
30290;DHT22;17105;55.652;37.710;2022-08-03T22:01:43;25.60;56.10
30290;DHT22;17105;55.652;37.710;2022-08-03T22:02:23;25.50;55.90
30290;DHT22;17105;55.652;37.710;2022-08-03T22:03:04;25.50;56.10
30290;DHT22;17105;55.652;37.710;2022-08-03T22:03:51;25.50;56.10
30290;DHT22;17105;55.652;37.710;2022-08-03T22:04:28;25.40;56.70
30290;DHT22;17105;55.652;37.710;2022-08-03T22:05:26;25.50;56.30
30290;DHT22;17105;55.652;37.710;2022-08-03T22:08:36;25.40;56.20
30290;DHT22;17105;55.652;37.710;2022-08-03T22:09:11;25.40;56.80
30290;DHT22;17105;55.652;37.710;2022-08-03T22:09:45;25.40;56.50
30290;DHT22;17105;55.652;37.710;2022-08-03T22:10:23;25.40;56.40
30290;DHT22;17105;55.652;37.710;2022-08-03T22:10:57;25.40;56.40
30290;DHT22;17105;55.652;37.710;2022-08-03T22:11:36;25.40;56.40
30290;DHT22;17105;55.652;37.710;2022-08-03T22:12:12;25.40;56.40
30290;DHT22;17105;55.652;37.710;2022-08-03T22:12:46;25.40;56.40
30290;DHT22;17105;55.652;37.710;2022-08-03T22:13:21;25.40;56.40
30290;DHT22;17105;55.652;37.710;2022-08-03T22:14:17;25.40;56.40
30290;DHT22;17105;55.652;37.710;2022-08-03T22:14:53;25.40;56.20
30290;DHT22;17105;55.652;37.710;2022-08-03T22:15:35;25.40;56.20
30290;DHT22;17105;55.652;37.710;2022-08-03T22:16:10;25.40;56.20
30290;DHT22;17105;55.652;37.710;2022-08-03T22:16:45;25.40;56.20
30290;DHT22;17105;55.652;37.710;2022-08-03T22:17:21;25.40;56.20
30290;DHT22;17105;55.652;37.710;2022-08-03T22:18:15;25.30;56.10
30290;DHT22;17105;55.652;37.710;2022-08-03T22:18:51;25.30;56.20
30290;DHT22;17105;55.652;37.710;2022-08-03T22:19:27;25.30;56.20
30290;DHT22;17105;55.652;37.710;2022-08-03T22:20:04;25.30;56.30
30290;DHT22;17105;55.652;37.710;2022-08-03T22:20:46;25.30;56.30
30290;DHT22;17105;55.652;37.710;2022-08-03T22:21:27;25.30;56.30
30290;DHT22;17105;55.652;37.710;2022-08-03T22:22:09;25.30;56.30
30290;DHT22;17105;55.652;37.710;2022-08-03T22:22:46;25.30;56.20
30290;DHT22;17105;55.652;37.710;2022-08-03T22:23:28;25.30;56.20
30290;DHT22;17105;55.652;37.710;2022-08-03T22:24:04;25.30;56.10
30290;DHT22;17105;55.652;37.710;2022-08-03T22:24:41;25.30;56.10
30290;DHT22;17105;55.652;37.710;2022-08-03T22:25:20;25.30;56.20
30290;DHT22;17105;55.652;37.710;2022-08-03T22:25:57;25.30;56.30
30290;DHT22;17105;55.652;37.710;2022-08-03T22:26:35;25.30;56.30
30290;DHT22;17105;55.652;37.710;2022-08-03T22:27:12;25.30;56.30
30290;DHT22;17105;55.652;37.710;2022-08-03T22:28:07;25.40;56.30
30290;DHT22;17105;55.652;37.710;2022-08-03T22:28:44;25.40;56.30
30290;DHT22;17105;55.652;37.710;2022-08-03T22:29:18;25.40;56.20
30290;DHT22;17105;55.652;37.710;2022-08-03T22:29:53;25.40;56.20
30290;DHT22;17105;55.652;37.710;2022-08-03T22:30:28;25.40;56.20
30290;DHT22;17105;55.652;37.710;2022-08-03T22:31:05;25.40;56.10
30290;DHT22;17105;55.652;37.710;2022-08-03T22:32:00;25.40;56.10
30290;DHT22;17105;55.652;37.710;2022-08-03T22:32:37;25.40;56.10
30290;DHT22;17105;55.652;37.710;2022-08-03T22:33:13;25.30;56.00
30290;DHT22;17105;55.652;37.710;2022-08-03T22:33:49;25.30;56.10
30290;DHT22;17105;55.652;37.710;2022-08-03T22:34:27;25.30;56.40
30290;DHT22;17105;55.652;37.710;2022-08-03T22:35:03;25.40;56.50
30290;DHT22;17105;55.652;37.710;2022-08-03T22:35:41;25.40;56.40
30290;DHT22;17105;55.652;37.710;2022-08-03T22:36:20;25.40;56.40
30290;DHT22;17105;55.652;37.710;2022-08-03T22:37:01;25.40;56.80
30290;DHT22;17105;55.652;37.710;2022-08-03T22:37:38;25.40;57.10
30290;DHT22;17105;55.652;37.710;2022-08-03T22:38:14;25.40;57.10
30290;DHT22;17105;55.652;37.710;2022-08-03T22:38:51;25.40;57.20
30290;DHT22;17105;55.652;37.710;2022-08-03T22:39:27;25.30;57.10
30290;DHT22;17105;55.652;37.710;2022-08-03T22:40:06;25.30;57.10
30290;DHT22;17105;55.652;37.710;2022-08-03T22:40:43;25.30;57.10
30290;DHT22;17105;55.652;37.710;2022-08-03T22:41:19;25.30;57.20
30290;DHT22;17105;55.652;37.710;2022-08-03T22:41:55;25.30;57.50
30290;DHT22;17105;55.652;37.710;2022-08-03T22:42:29;25.20;57.60
30290;DHT22;17105;55.652;37.710;2022-08-03T22:43:04;25.30;57.90